Time;durP1;ratioP1;P1;durP2;ratioP2;P2;SDS_P1;SDS_P2;PMS_P1;PMS_P2;Temp;Humidity;BMP_temperature;BMP_pressure;BME280_temperature;BME280_humidity;BME280_pressure;Samples;Min_cycle;Max_cycle;Signal;HPM_P1;HPM_P2
2022/09/22 00:01:20;;;;;;;0.60;0.60;;;;;;;;;;5072268;28;20205;-82
2022/09/22 00:03:50;;;;;;;0.53;0.53;;;;;;;;;;5071320;28;20205;-82
2022/09/22 00:06:19;;;;;;;0.80;0.80;;;;;;;;;;5071990;28;20768;-82
2022/09/22 00:08:49;;;;;;;0.40;0.40;;;;;;;;;;5071782;28;20193;-82
2022/09/22 00:11:19;;;;;;;0.60;0.60;;;;;;;;;;5071965;28;20197;-82
2022/09/22 00:13:49;;;;;;;0.50;0.50;;;;;;;;;;5071517;28;20209;-82
2022/09/22 00:16:17;;;;;;;0.47;0.47;;;;;;;;;;5071822;28;20709;-82
2022/09/22 00:18:44;;;;;;;0.50;0.50;;;;;;;;;;5071466;28;20209;-82
2022/09/22 00:21:14;;;;;;;0.43;0.43;;;;;;;;;;5071471;28;20663;-82
2022/09/22 00:23:41;;;;;;;0.40;0.40;;;;;;;;;;5071539;28;20634;-82
2022/09/22 00:26:10;;;;;;;0.60;0.60;;;;;;;;;;5057782;28;20204;-82
2022/09/22 00:28:38;;;;;;;0.63;0.63;;;;;;;;;;5071413;28;20228;-82
2022/09/22 00:31:06;;;;;;;0.50;0.50;;;;;;;;;;5071354;28;20664;-82
2022/09/22 00:33:33;;;;;;;0.53;0.53;;;;;;;;;;5070737;28;20327;-82
2022/09/22 00:36:01;;;;;;;0.50;0.50;;;;;;;;;;5071165;28;20204;-83
2022/09/22 00:38:29;;;;;;;0.50;0.50;;;;;;;;;;5071063;28;20208;-82
2022/09/22 00:40:56;;;;;;;0.60;0.60;;;;;;;;;;5071449;28;20205;-83
2022/09/22 00:43:25;;;;;;;0.80;0.80;;;;;;;;;;5070799;28;20220;-83
2022/09/22 00:45:54;;;;;;;0.50;0.50;;;;;;;;;;5071207;28;20289;-83
2022/09/22 00:48:23;;;;;;;0.53;0.47;;;;;;;;;;5071240;28;20204;-82
2022/09/22 00:50:50;;;;;;;0.60;0.60;;;;;;;;;;5070459;28;20629;-82
2022/09/22 00:53:17;;;;;;;0.50;0.50;;;;;;;;;;5069893;28;20201;-82
2022/09/22 00:55:48;;;;;;;0.60;0.60;;;;;;;;;;5070817;28;20201;-82
2022/09/22 00:58:17;;;;;;;0.70;0.63;;;;;;;;;;5070876;28;20201;-82
2022/09/22 01:00:44;;;;;;;0.50;0.50;;;;;;;;;;5070553;28;20201;-82
2022/09/22 01:03:13;;;;;;;0.40;0.40;;;;;;;;;;5070306;28;20613;-82
2022/09/22 01:05:41;;;;;;;0.50;0.50;;;;;;;;;;5070880;28;20571;-82
2022/09/22 01:08:08;;;;;;;0.60;0.60;;;;;;;;;;5070731;28;20201;-82
2022/09/22 01:10:36;;;;;;;0.50;0.50;;;;;;;;;;5071034;28;20273;-82
2022/09/22 01:13:12;;;;;;;0.50;0.50;;;;;;;;;;5070562;28;20197;-82
2022/09/22 01:15:45;;;;;;;0.40;0.40;;;;;;;;;;5057060;28;20204;-81
2022/09/22 01:18:20;;;;;;;0.60;0.60;;;;;;;;;;5070517;28;20197;-82
2022/09/22 01:21:19;;;;;;;0.50;0.50;;;;;;;;;;5070438;28;20563;-82
2022/09/22 01:24:25;;;;;;;0.50;0.50;;;;;;;;;;5044749;28;20221;-82
2022/09/22 01:27:23;;;;;;;0.50;0.50;;;;;;;;;;5070738;28;20204;-82
2022/09/22 01:30:17;;;;;;;0.40;0.40;;;;;;;;;;5070293;28;20204;-82
2022/09/22 01:32:56;;;;;;;0.60;0.60;;;;;;;;;;5070147;28;20229;-82
2022/09/22 01:35:27;;;;;;;0.50;0.50;;;;;;;;;;5070299;28;20201;-82
2022/09/22 01:37:58;;;;;;;0.60;0.60;;;;;;;;;;5070512;28;20288;-82
2022/09/22 01:40:31;;;;;;;0.70;0.70;;;;;;;;;;5070313;28;20204;-83
2022/09/22 01:43:06;;;;;;;0.40;0.40;;;;;;;;;;5070346;28;20248;-82
2022/09/22 01:45:35;;;;;;;0.70;0.70;;;;;;;;;;5069911;28;20691;-81
2022/09/22 01:48:07;;;;;;;0.40;0.40;;;;;;;;;;5070108;28;20683;-82
2022/09/22 01:50:37;;;;;;;0.60;0.60;;;;;;;;;;5070302;28;20252;-82
2022/09/22 01:53:07;;;;;;;1.73;0.80;;;;;;;;;;5070279;28;20196;-82
2022/09/22 01:55:37;;;;;;;0.43;0.43;;;;;;;;;;5055889;28;20201;-82
2022/09/22 01:58:06;;;;;;;0.60;0.60;;;;;;;;;;5070319;28;20263;-82
2022/09/22 02:00:35;;;;;;;0.60;0.60;;;;;;;;;;5070180;28;20205;-82
2022/09/22 02:03:06;;;;;;;0.50;0.50;;;;;;;;;;5070115;28;20236;-82
2022/09/22 02:05:34;;;;;;;0.57;0.57;;;;;;;;;;5069753;28;20204;-81
2022/09/22 02:08:02;;;;;;;0.60;0.60;;;;;;;;;;5069762;28;20205;-82
2022/09/22 02:10:32;;;;;;;0.50;0.50;;;;;;;;;;5070014;28;20212;-82
2022/09/22 02:13:00;;;;;;;0.70;0.70;;;;;;;;;;5070028;28;20254;-82
2022/09/22 02:18:15;;;;;;;0.60;0.60;;;;;;;;;;5069883;28;20208;-81
2022/09/22 02:20:42;;;;;;;0.40;0.40;;;;;;;;;;5069745;28;20213;-82
2022/09/22 02:23:09;;;;;;;0.57;0.57;;;;;;;;;;5069607;28;20225;-82
2022/09/22 02:25:36;;;;;;;0.40;0.40;;;;;;;;;;5069531;28;20202;-82
2022/09/22 02:28:03;;;;;;;0.80;0.80;;;;;;;;;;5069927;28;20197;-82
2022/09/22 02:30:31;;;;;;;0.63;0.63;;;;;;;;;;5070110;28;20210;-82
2022/09/22 02:32:59;;;;;;;0.77;0.77;;;;;;;;;;5069630;28;20232;-82
2022/09/22 02:35:29;;;;;;;0.60;0.60;;;;;;;;;;5069804;28;20564;-82
2022/09/22 02:38:02;;;;;;;0.40;0.40;;;;;;;;;;5069651;28;20607;-82
2022/09/22 02:40:32;;;;;;;0.43;0.43;;;;;;;;;;5069871;28;20632;-82
2022/09/22 02:43:01;;;;;;;0.63;0.63;;;;;;;;;;5069398;28;20232;-83
2022/09/22 02:45:32;;;;;;;0.60;0.60;;;;;;;;;;5069571;28;20205;-82
2022/09/22 02:48:01;;;;;;;0.70;0.70;;;;;;;;;;5069970;28;20583;-82
2022/09/22 02:50:30;;;;;;;0.63;0.63;;;;;;;;;;5068296;28;20205;-82
2022/09/22 02:52:59;;;;;;;0.50;0.50;;;;;;;;;;5067823;28;20254;-81
2022/09/22 02:55:25;;;;;;;0.50;0.50;;;;;;;;;;5069520;28;20213;-81
2022/09/22 02:57:53;;;;;;;0.53;0.53;;;;;;;;;;5071353;28;20632;-81
2022/09/22 03:00:20;;;;;;;1.07;0.70;;;;;;;;;;5072956;28;20702;-82
2022/09/22 03:02:47;;;;;;;0.50;0.50;;;;;;;;;;5072974;28;20229;-82
2022/09/22 03:05:14;;;;;;;0.60;0.60;;;;;;;;;;5072920;28;20709;-83
2022/09/22 03:07:42;;;;;;;0.70;0.70;;;;;;;;;;5073274;28;20205;-81
2022/09/22 03:10:10;;;;;;;0.63;0.63;;;;;;;;;;5072608;28;20205;-83
2022/09/22 03:12:41;;;;;;;0.60;0.60;;;;;;;;;;5072562;28;20205;-82
2022/09/22 03:15:09;;;;;;;0.60;0.60;;;;;;;;;;5072882;28;20208;-82
2022/09/22 03:17:35;;;;;;;0.80;0.80;;;;;;;;;;5073311;28;20254;-82
2022/09/22 03:20:03;;;;;;;0.53;0.53;;;;;;;;;;5072867;28;20208;-82
2022/09/22 03:22:29;;;;;;;0.97;0.97;;;;;;;;;;5072877;28;20278;-82
2022/09/22 03:24:57;;;;;;;0.50;0.50;;;;;;;;;;5072486;28;20267;-82
2022/09/22 03:27:24;;;;;;;0.57;0.57;;;;;;;;;;5072686;28;20212;-81
2022/09/22 03:29:51;;;;;;;0.50;0.50;;;;;;;;;;5069668;28;20736;-79
2022/09/22 03:32:18;;;;;;;0.93;0.80;;;;;;;;;;5072165;28;20232;-79
2022/09/22 03:34:45;;;;;;;0.80;0.80;;;;;;;;;;5072424;28;20295;-79
2022/09/22 03:37:11;;;;;;;0.53;0.53;;;;;;;;;;5072695;28;20197;-80
2022/09/22 03:39:38;;;;;;;0.43;0.43;;;;;;;;;;5071786;28;20580;-81
2022/09/22 03:42:07;;;;;;;0.43;0.43;;;;;;;;;;5066356;28;20279;-81
2022/09/22 03:44:34;;;;;;;0.50;0.50;;;;;;;;;;5052485;28;20263;-81
2022/09/22 03:47:01;;;;;;;0.50;0.50;;;;;;;;;;5070215;28;20204;-78
2022/09/22 03:49:28;;;;;;;0.60;0.60;;;;;;;;;;5071501;28;20205;-78
2022/09/22 03:51:55;;;;;;;0.60;0.60;;;;;;;;;;5071408;28;20267;-78
2022/09/22 03:54:21;;;;;;;0.63;0.63;;;;;;;;;;5070187;28;20205;-78
2022/09/22 03:56:48;;;;;;;1.23;1.17;;;;;;;;;;5071601;28;20209;-78
2022/09/22 03:59:17;;;;;;;1.70;1.60;;;;;;;;;;5071349;28;20205;-78
2022/09/22 04:01:46;;;;;;;1.37;1.13;;;;;;;;;;5071604;28;20204;-78
2022/09/22 04:04:13;;;;;;;0.60;0.60;;;;;;;;;;5070053;28;20650;-78
2022/09/22 04:06:40;;;;;;;0.70;0.70;;;;;;;;;;5070110;28;20201;-77
2022/09/22 04:09:07;;;;;;;2.17;1.43;;;;;;;;;;5070965;28;20201;-77
2022/09/22 04:11:35;;;;;;;1.40;1.30;;;;;;;;;;5069833;28;20208;-82
2022/09/22 04:14:03;;;;;;;0.80;0.80;;;;;;;;;;5069891;28;20201;-82
2022/09/22 04:16:32;;;;;;;0.90;0.90;;;;;;;;;;5071763;28;20224;-82
2022/09/22 04:18:59;;;;;;;0.70;0.70;;;;;;;;;;5069904;28;20251;-82
2022/09/22 04:21:27;;;;;;;0.70;0.70;;;;;;;;;;5052982;28;20213;-82
2022/09/22 04:23:55;;;;;;;0.77;0.77;;;;;;;;;;5070853;28;20228;-82
2022/09/22 04:26:22;;;;;;;0.83;0.83;;;;;;;;;;5071204;28;20764;-82
2022/09/22 04:28:49;;;;;;;0.70;0.70;;;;;;;;;;5070546;28;20266;-82
2022/09/22 04:31:16;;;;;;;0.53;0.53;;;;;;;;;;5069149;28;20205;-82
2022/09/22 04:33:45;;;;;;;1.03;1.03;;;;;;;;;;5069645;28;20707;-82
2022/09/22 04:36:12;;;;;;;0.40;0.40;;;;;;;;;;5071138;28;20212;-82
2022/09/22 04:38:40;;;;;;;0.37;0.37;;;;;;;;;;5069820;28;20208;-83
2022/09/22 04:41:07;;;;;;;0.70;0.70;;;;;;;;;;5070615;28;20219;-83
2022/09/22 04:43:34;;;;;;;0.60;0.60;;;;;;;;;;5070763;28;20231;-82
2022/09/22 04:46:01;;;;;;;0.70;0.70;;;;;;;;;;5069826;28;20217;-82
2022/09/22 04:48:28;;;;;;;0.50;0.50;;;;;;;;;;5069471;28;20666;-82
2022/09/22 04:50:57;;;;;;;0.70;0.70;;;;;;;;;;5070988;28;20209;-82
2022/09/22 04:53:24;;;;;;;0.60;0.60;;;;;;;;;;5069621;28;20254;-83
2022/09/22 04:55:51;;;;;;;0.67;0.67;;;;;;;;;;5069483;28;20205;-82
2022/09/22 04:58:18;;;;;;;0.50;0.50;;;;;;;;;;5069308;28;20201;-82
2022/09/22 05:00:46;;;;;;;0.70;0.70;;;;;;;;;;5069381;28;20207;-82
2022/09/22 05:03:14;;;;;;;0.63;0.63;;;;;;;;;;5052868;28;20714;-82
2022/09/22 05:05:41;;;;;;;0.57;0.57;;;;;;;;;;5052030;28;20205;-82
2022/09/22 05:08:09;;;;;;;0.73;0.73;;;;;;;;;;5069757;28;20211;-82
2022/09/22 05:10:36;;;;;;;0.70;0.70;;;;;;;;;;5070038;28;20197;-82
2022/09/22 05:13:05;;;;;;;0.87;0.87;;;;;;;;;;5069907;28;20674;-82
2022/09/22 05:15:33;;;;;;;0.70;0.70;;;;;;;;;;5069744;28;20208;-83
2022/09/22 05:18:00;;;;;;;0.77;0.77;;;;;;;;;;5070656;28;20770;-82
2022/09/22 05:20:27;;;;;;;0.50;0.50;;;;;;;;;;5069883;28;20204;-82
2022/09/22 05:22:53;;;;;;;1.40;0.90;;;;;;;;;;5070604;28;20644;-82
2022/09/22 05:25:22;;;;;;;0.40;0.40;;;;;;;;;;5070722;28;20660;-82
2022/09/22 05:27:50;;;;;;;0.60;0.60;;;;;;;;;;5070498;28;20196;-82
2022/09/22 05:30:17;;;;;;;0.60;0.60;;;;;;;;;;5070488;28;20208;-82
2022/09/22 05:32:45;;;;;;;0.70;0.70;;;;;;;;;;5070458;28;20235;-82
2022/09/22 05:35:12;;;;;;;0.80;0.80;;;;;;;;;;5069555;28;20589;-82
2022/09/22 05:37:41;;;;;;;0.50;0.50;;;;;;;;;;5070271;28;20213;-82
2022/09/22 05:40:09;;;;;;;0.60;0.60;;;;;;;;;;5065437;28;20283;-79
2022/09/22 05:42:42;;;;;;;0.77;0.77;;;;;;;;;;5069745;28;20189;-79
2022/09/22 05:45:10;;;;;;;0.43;0.43;;;;;;;;;;5069662;28;20303;-79
2022/09/22 05:47:38;;;;;;;0.50;0.50;;;;;;;;;;5070061;28;20679;-79
2022/09/22 05:50:06;;;;;;;0.53;0.53;;;;;;;;;;5070021;28;20208;-79
2022/09/22 05:52:33;;;;;;;0.60;0.60;;;;;;;;;;5069862;28;20246;-78
2022/09/22 05:55:00;;;;;;;0.53;0.53;;;;;;;;;;5068139;28;20213;-77
2022/09/22 05:57:27;;;;;;;0.63;0.63;;;;;;;;;;5052133;28;20760;-78
2022/09/22 05:59:55;;;;;;;0.67;0.67;;;;;;;;;;5069488;28;20228;-78
2022/09/22 06:02:23;;;;;;;0.50;0.50;;;;;;;;;;5070037;28;20211;-78
2022/09/22 06:04:54;;;;;;;0.70;0.70;;;;;;;;;;5102204;28;20227;-80
2022/09/22 06:07:21;;;;;;;0.40;0.40;;;;;;;;;;5068471;28;20591;-78
2022/09/22 06:09:48;;;;;;;0.60;0.60;;;;;;;;;;5067602;28;20690;-80
2022/09/22 06:12:15;;;;;;;0.70;0.70;;;;;;;;;;5069734;28;20860;-80
2022/09/22 06:14:42;;;;;;;0.40;0.40;;;;;;;;;;5069505;28;20201;-79
2022/09/22 06:17:12;;;;;;;0.67;0.67;;;;;;;;;;5068382;28;20208;-78
2022/09/22 06:19:39;;;;;;;0.70;0.70;;;;;;;;;;5069513;28;20220;-78
2022/09/22 06:22:07;;;;;;;0.60;0.60;;;;;;;;;;5069770;28;20703;-79
2022/09/22 06:24:34;;;;;;;0.90;0.90;;;;;;;;;;5069299;28;20236;-78
2022/09/22 06:27:01;;;;;;;0.60;0.60;;;;;;;;;;5067587;28;20288;-77
2022/09/22 06:29:27;;;;;;;0.80;0.77;;;;;;;;;;5068457;28;20209;-78
2022/09/22 06:31:54;;;;;;;0.50;0.50;;;;;;;;;;5068870;28;20212;-79
2022/09/22 06:34:25;;;;;;;0.80;0.80;;;;;;;;;;5072858;28;20193;-78
2022/09/22 06:36:53;;;;;;;0.80;0.80;;;;;;;;;;5072867;28;20324;-79
2022/09/22 06:39:20;;;;;;;0.73;0.73;;;;;;;;;;5088493;28;20205;-79
2022/09/22 06:41:48;;;;;;;0.90;0.90;;;;;;;;;;5072286;28;20270;-79
2022/09/22 06:44:15;;;;;;;1.90;0.70;;;;;;;;;;5047795;28;20228;-79
2022/09/22 06:46:42;;;;;;;0.80;0.80;;;;;;;;;;5073419;28;20201;-78
2022/09/22 06:49:12;;;;;;;0.83;0.83;;;;;;;;;;5072774;28;20208;-79
2022/09/22 06:51:41;;;;;;;0.73;0.73;;;;;;;;;;5071711;28;20267;-81
2022/09/22 06:54:08;;;;;;;1.30;1.20;;;;;;;;;;5072990;28;20201;-79
2022/09/22 06:56:41;;;;;;;0.90;0.90;;;;;;;;;;5055463;28;20262;-78
2022/09/22 06:59:12;;;;;;;0.77;0.77;;;;;;;;;;5072831;28;20246;-80
2022/09/22 07:01:40;;;;;;;0.50;0.50;;;;;;;;;;5059405;28;20289;-78
2022/09/22 07:04:07;;;;;;;0.70;0.70;;;;;;;;;;5057252;28;20636;-80
2022/09/22 07:06:36;;;;;;;0.60;0.60;;;;;;;;;;5071961;28;20204;-81
2022/09/22 07:09:05;;;;;;;0.60;0.60;;;;;;;;;;5072370;28;20201;-81
2022/09/22 07:11:33;;;;;;;0.80;0.80;;;;;;;;;;5072360;28;20730;-79
2022/09/22 07:14:01;;;;;;;1.00;1.00;;;;;;;;;;5070007;28;20712;-85
2022/09/22 07:16:31;;;;;;;0.80;0.80;;;;;;;;;;5058800;28;20216;-86
2022/09/22 07:18:59;;;;;;;0.77;0.77;;;;;;;;;;5068866;28;20621;-81
2022/09/22 07:21:31;;;;;;;0.57;0.57;;;;;;;;;;5072545;28;20404;-79
2022/09/22 07:23:59;;;;;;;1.00;1.00;;;;;;;;;;5071858;28;20231;-80
2022/09/22 07:26:30;;;;;;;0.83;0.83;;;;;;;;;;5068967;28;20197;-82
2022/09/22 07:28:59;;;;;;;0.90;0.90;;;;;;;;;;5066581;28;20288;-79
2022/09/22 07:31:28;;;;;;;0.70;0.70;;;;;;;;;;5072151;28;20208;-78
2022/09/22 07:33:55;;;;;;;0.80;0.80;;;;;;;;;;5070071;28;20315;-78
2022/09/22 07:36:24;;;;;;;0.67;0.67;;;;;;;;;;5072227;28;20212;-78
2022/09/22 07:38:53;;;;;;;0.80;0.80;;;;;;;;;;5071416;28;20576;-78
2022/09/22 07:41:22;;;;;;;0.73;0.73;;;;;;;;;;5069958;28;20250;-78
2022/09/22 07:43:51;;;;;;;0.60;0.60;;;;;;;;;;5068935;28;20208;-78
2022/09/22 07:46:21;;;;;;;0.70;0.70;;;;;;;;;;5071586;28;20209;-77
2022/09/22 07:48:48;;;;;;;0.70;0.70;;;;;;;;;;5071785;28;20284;-78
2022/09/22 07:51:18;;;;;;;0.93;0.90;;;;;;;;;;5104647;28;20259;-78
2022/09/22 07:53:45;;;;;;;0.70;0.70;;;;;;;;;;5070265;28;20201;-78
2022/09/22 07:56:14;;;;;;;2.20;0.70;;;;;;;;;;5070931;28;20208;-79
2022/09/22 07:58:43;;;;;;;0.80;0.80;;;;;;;;;;5069744;28;20282;-79
2022/09/22 08:01:11;;;;;;;0.60;0.60;;;;;;;;;;5071804;28;20748;-89
2022/09/22 08:03:38;;;;;;;0.50;0.50;;;;;;;;;;5071098;28;20198;-79
2022/09/22 08:06:09;;;;;;;0.60;0.60;;;;;;;;;;5071506;28;20233;-83
2022/09/22 08:08:40;;;;;;;1.20;1.20;;;;;;;;;;5071296;28;20679;-87
2022/09/22 08:11:09;;;;;;;0.80;0.80;;;;;;;;;;5071517;28;20759;-79
2022/09/22 08:13:37;;;;;;;0.67;0.67;;;;;;;;;;5070466;28;20734;-78
2022/09/22 08:16:04;;;;;;;0.63;0.63;;;;;;;;;;5071491;28;20201;-79
2022/09/22 08:18:35;;;;;;;0.67;0.60;;;;;;;;;;5068932;28;20286;-79
2022/09/22 08:21:03;;;;;;;0.70;0.70;;;;;;;;;;5066595;28;20204;-79
2022/09/22 08:23:30;;;;;;;0.67;0.67;;;;;;;;;;5071846;28;20209;-79
2022/09/22 08:26:02;;;;;;;0.80;0.80;;;;;;;;;;5070029;28;20685;-78
2022/09/22 08:28:32;;;;;;;0.67;0.67;;;;;;;;;;5071163;28;20197;-78
2022/09/22 08:30:59;;;;;;;0.60;0.60;;;;;;;;;;5071107;28;20706;-78
2022/09/22 08:33:26;;;;;;;0.60;0.60;;;;;;;;;;5056749;28;20232;-78
2022/09/22 08:35:56;;;;;;;0.70;0.70;;;;;;;;;;5071564;28;20211;-78
2022/09/22 08:38:23;;;;;;;0.80;0.80;;;;;;;;;;5069183;28;20204;-79
2022/09/22 08:41:07;;;;;;;0.80;0.80;;;;;;;;;;5070341;28;20201;-80
2022/09/22 08:43:34;;;;;;;0.70;0.70;;;;;;;;;;5070757;28;20235;-79
2022/09/22 08:46:01;;;;;;;0.60;0.60;;;;;;;;;;5070499;28;20225;-79
2022/09/22 08:54:11;;;;;;;0.53;0.53;;;;;;;;;;5065674;28;20208;-79
2022/09/22 08:56:42;;;;;;;0.60;0.60;;;;;;;;;;5069922;28;20201;-79
2022/09/22 08:59:13;;;;;;;0.70;0.70;;;;;;;;;;5070059;28;20197;-79
2022/09/22 09:01:58;;;;;;;0.70;0.70;;;;;;;;;;5070575;28;20205;-79
2022/09/22 09:04:49;;;;;;;0.60;0.60;;;;;;;;;;5070013;28;20299;-79
2022/09/22 09:07:22;;;;;;;0.70;0.70;;;;;;;;;;5070307;28;20634;-79
2022/09/22 09:09:58;;;;;;;0.87;0.87;;;;;;;;;;5069945;28;20593;-78
2022/09/22 09:12:34;;;;;;;0.60;0.60;;;;;;;;;;5070141;28;20200;-78
2022/09/22 09:15:22;;;;;;;1.77;1.63;;;;;;;;;;5070587;28;20223;-79
2022/09/22 09:17:50;;;;;;;0.90;0.90;;;;;;;;;;5032146;28;20193;-78
2022/09/22 09:20:20;;;;;;;0.60;0.60;;;;;;;;;;5070613;28;20193;-79
2022/09/22 09:22:54;;;;;;;0.80;0.80;;;;;;;;;;5070416;28;20204;-79
2022/09/22 09:25:24;;;;;;;1.50;1.40;;;;;;;;;;5070587;28;20221;-78
2022/09/22 09:27:57;;;;;;;1.33;1.00;;;;;;;;;;5069829;28;20239;-79
2022/09/22 09:30:24;;;;;;;1.60;1.50;;;;;;;;;;5070916;28;20318;-78
2022/09/22 09:32:52;;;;;;;1.00;1.00;;;;;;;;;;5069952;28;20237;-78
2022/09/22 09:35:25;;;;;;;0.63;0.63;;;;;;;;;;5070456;28;20205;-77
2022/09/22 09:37:56;;;;;;;1.00;0.73;;;;;;;;;;5068783;28;20193;-78
2022/09/22 09:40:23;;;;;;;0.73;0.73;;;;;;;;;;5069419;28;20671;-79
2022/09/22 09:42:55;;;;;;;0.60;0.60;;;;;;;;;;5067667;28;20633;-78
2022/09/22 09:45:26;;;;;;;0.60;0.60;;;;;;;;;;5068027;28;20614;-78
2022/09/22 09:48:12;;;;;;;0.80;0.80;;;;;;;;;;5061465;28;20326;-77
2022/09/22 09:50:38;;;;;;;0.50;0.50;;;;;;;;;;5069735;28;20295;-78
2022/09/22 09:53:20;;;;;;;0.60;0.60;;;;;;;;;;5070045;28;20220;-78
2022/09/22 09:55:49;;;;;;;0.60;0.60;;;;;;;;;;5069883;28;20205;-79
2022/09/22 10:00:29;;;;;;;0.70;0.70;;;;;;;;;;5069836;28;20593;-77
2022/09/22 10:01:07;;;;;;;3.23;2.57;;;;;;;;;;5068746;28;20193;-78
2022/09/22 10:03:35;;;;;;;1.07;1.07;;;;;;;;;;5069187;28;20243;-78
2022/09/22 10:06:05;;;;;;;0.70;0.70;;;;;;;;;;5070499;28;20230;-78
2022/09/22 10:08:35;;;;;;;2.00;1.53;;;;;;;;;;5073567;28;20198;-77
2022/09/22 10:11:03;;;;;;;1.27;1.20;;;;;;;;;;5073311;28;20201;-78
2022/09/22 10:13:32;;;;;;;0.67;0.67;;;;;;;;;;5073262;28;20242;-77
2022/09/22 10:16:09;;;;;;;0.83;0.83;;;;;;;;;;5073632;28;20623;-77
2022/09/22 10:18:39;;;;;;;0.63;0.63;;;;;;;;;;5074907;28;20201;-78
2022/09/22 10:21:11;;;;;;;0.67;0.67;;;;;;;;;;5073808;28;20279;-77
2022/09/22 10:23:40;;;;;;;5.20;3.03;;;;;;;;;;5067601;28;20212;-77
2022/09/22 10:26:25;;;;;;;1.10;1.10;;;;;;;;;;5073103;28;20621;-76
2022/09/22 10:29:21;;;;;;;0.70;0.70;;;;;;;;;;5073314;28;20197;-76
2022/09/22 10:32:06;;;;;;;0.70;0.70;;;;;;;;;;5031122;28;20195;-81
2022/09/22 10:34:35;;;;;;;0.90;0.90;;;;;;;;;;5066184;28;20201;-81
2022/09/22 10:37:05;;;;;;;1.77;1.43;;;;;;;;;;5073453;28;20205;-81
2022/09/22 10:39:39;;;;;;;1.20;1.07;;;;;;;;;;5073224;28;20210;-81
2022/09/22 10:42:15;;;;;;;0.90;0.90;;;;;;;;;;5073425;28;20210;-81
2022/09/22 10:44:45;;;;;;;0.90;0.90;;;;;;;;;;5072582;28;20319;-79
2022/09/22 10:47:28;;;;;;;0.70;0.70;;;;;;;;;;5073168;28;20216;-80
2022/09/22 10:50:20;;;;;;;0.70;0.70;;;;;;;;;;5073106;28;20201;-80
2022/09/22 10:52:54;;;;;;;2.77;1.60;;;;;;;;;;5073334;28;20318;-81
2022/09/22 10:55:28;;;;;;;1.10;0.80;;;;;;;;;;5072530;28;20205;-80
2022/09/22 10:58:09;;;;;;;0.60;0.60;;;;;;;;;;5072789;28;20208;-80
2022/09/22 11:00:36;;;;;;;0.50;0.50;;;;;;;;;;5072827;28;20695;-79
2022/09/22 11:03:28;;;;;;;1.00;1.00;;;;;;;;;;5070482;28;20193;-79
2022/09/22 11:15:15;;;;;;;0.50;0.50;;;;;;;;;;5070103;28;20236;-79
2022/09/22 11:17:55;;;;;;;0.60;0.60;;;;;;;;;;5065578;28;20208;-79
2022/09/22 11:20:37;;;;;;;0.57;0.57;;;;;;;;;;5072690;28;20197;-79
2022/09/22 11:23:31;;;;;;;0.53;0.53;;;;;;;;;;5072474;28;20201;-79
2022/09/22 11:26:28;;;;;;;0.70;0.70;;;;;;;;;;5073022;28;20221;-79
2022/09/22 11:29:14;;;;;;;0.70;0.70;;;;;;;;;;5055729;28;20758;-79
2022/09/22 11:31:46;;;;;;;0.70;0.70;;;;;;;;;;5072280;28;20207;-80
2022/09/22 11:34:48;;;;;;;0.80;0.80;;;;;;;;;;5072023;28;20225;-79
2022/09/22 11:37:29;;;;;;;0.50;0.50;;;;;;;;;;5034257;28;20210;-78
2022/09/22 11:40:09;;;;;;;0.87;0.63;;;;;;;;;;5069914;28;20705;-79
2022/09/22 11:42:43;;;;;;;0.50;0.50;;;;;;;;;;5071212;28;20201;-78
2022/09/22 11:45:19;;;;;;;0.50;0.50;;;;;;;;;;5070783;28;20236;-79
2022/09/22 11:48:03;;;;;;;0.80;0.80;;;;;;;;;;5067823;28;20686;-79
2022/09/22 11:50:43;;;;;;;1.10;1.10;;;;;;;;;;5070171;28;20221;-80
2022/09/22 11:53:25;;;;;;;4.07;2.03;;;;;;;;;;5069365;28;20212;-81
2022/09/22 11:56:03;;;;;;;2.57;1.23;;;;;;;;;;5070673;28;20201;-79
2022/09/22 11:58:31;;;;;;;1.10;1.00;;;;;;;;;;5070582;28;20206;-80
2022/09/22 12:01:05;;;;;;;6.10;3.17;;;;;;;;;;5070847;28;20193;-80
2022/09/22 12:03:38;;;;;;;2.03;1.07;;;;;;;;;;5070107;28;20209;-80
2022/09/22 12:06:09;;;;;;;0.70;0.70;;;;;;;;;;5069470;28;20232;-80
2022/09/22 12:08:38;;;;;;;0.53;0.53;;;;;;;;;;5070780;28;20235;-79
2022/09/22 12:11:07;;;;;;;0.60;0.60;;;;;;;;;;5070764;28;20206;-77
2022/09/22 12:13:34;;;;;;;0.60;0.60;;;;;;;;;;5070588;28;20682;-77
2022/09/22 12:16:07;;;;;;;0.40;0.40;;;;;;;;;;5061177;28;20206;-77
2022/09/22 12:18:41;;;;;;;0.40;0.40;;;;;;;;;;5062421;28;20232;-77
2022/09/22 12:21:23;;;;;;;0.67;0.67;;;;;;;;;;5071690;28;20764;-77
2022/09/22 12:23:51;;;;;;;0.60;0.60;;;;;;;;;;5071691;28;20755;-77
2022/09/22 12:26:26;;;;;;;0.60;0.60;;;;;;;;;;5071585;28;20227;-77
2022/09/22 12:28:53;;;;;;;0.80;0.80;;;;;;;;;;5071315;28;20265;-77
2022/09/22 12:31:32;;;;;;;0.80;0.80;;;;;;;;;;5071348;28;20197;-77
2022/09/22 12:33:59;;;;;;;0.90;0.90;;;;;;;;;;5071114;28;20225;-77
2022/09/22 12:36:29;;;;;;;2.90;0.93;;;;;;;;;;5070960;28;20212;-77
2022/09/22 12:39:07;;;;;;;0.60;0.60;;;;;;;;;;5071231;28;20360;-76
2022/09/22 12:41:47;;;;;;;0.70;0.70;;;;;;;;;;5070863;28;20201;-76
2022/09/22 12:44:16;;;;;;;0.70;0.70;;;;;;;;;;5070972;28;20211;-77
2022/09/22 12:46:45;;;;;;;0.90;0.90;;;;;;;;;;5071023;28;20308;-76
2022/09/22 12:49:15;;;;;;;0.87;0.87;;;;;;;;;;5070720;28;20687;-76
2022/09/22 12:51:42;;;;;;;0.80;0.80;;;;;;;;;;5071181;28;20205;-77
2022/09/22 12:54:50;;;;;;;0.70;0.70;;;;;;;;;;5070462;28;20228;-77
2022/09/22 12:57:29;;;;;;;0.80;0.80;;;;;;;;;;5071269;28;20278;-77
2022/09/22 13:00:11;;;;;;;0.60;0.60;;;;;;;;;;5070802;28;20713;-76
2022/09/22 13:02:44;;;;;;;0.40;0.40;;;;;;;;;;5070869;28;20212;-77
2022/09/22 13:05:35;;;;;;;0.50;0.50;;;;;;;;;;5070694;28;20216;-76
2022/09/22 13:08:03;;;;;;;0.60;0.60;;;;;;;;;;5070673;28;20207;-76
2022/09/22 13:10:50;;;;;;;0.60;0.60;;;;;;;;;;5070619;28;20200;-76
2022/09/22 13:13:23;;;;;;;0.83;0.80;;;;;;;;;;5070906;28;20228;-76
2022/09/22 13:15:58;;;;;;;0.60;0.60;;;;;;;;;;5070871;28;20200;-76
2022/09/22 13:18:31;;;;;;;0.50;0.50;;;;;;;;;;5070197;28;20696;-77
2022/09/22 13:20:57;;;;;;;0.70;0.70;;;;;;;;;;5070811;28;20211;-77
2022/09/22 13:23:25;;;;;;;0.80;0.80;;;;;;;;;;5069673;28;20211;-76
2022/09/22 13:25:51;;;;;;;0.63;0.63;;;;;;;;;;5065451;28;20236;-77
2022/09/22 13:28:20;;;;;;;0.73;0.73;;;;;;;;;;5065866;28;20200;-76
2022/09/22 13:30:57;;;;;;;1.00;1.00;;;;;;;;;;5069432;28;20205;-76
2022/09/22 13:33:25;;;;;;;0.70;0.70;;;;;;;;;;5069144;28;20224;-76
2022/09/22 13:36:00;;;;;;;1.03;1.03;;;;;;;;;;5069005;28;20219;-76
2022/09/22 13:38:27;;;;;;;3.47;2.10;;;;;;;;;;5068454;28;20212;-76
2022/09/22 13:40:54;;;;;;;5.43;2.97;;;;;;;;;;5068361;28;20208;-77
2022/09/22 13:43:26;;;;;;;6.57;3.27;;;;;;;;;;5068992;28;20211;-77
2022/09/22 13:45:54;;;;;;;2.20;2.00;;;;;;;;;;5069924;28;20710;-78
2022/09/22 13:48:21;;;;;;;8.23;2.17;;;;;;;;;;5070208;28;20671;-77
2022/09/22 13:50:53;;;;;;;1.83;1.50;;;;;;;;;;5069451;28;20215;-77
2022/09/22 13:53:22;;;;;;;0.50;0.50;;;;;;;;;;5069877;28;20204;-77
2022/09/22 13:55:50;;;;;;;1.43;1.33;;;;;;;;;;5070334;28;20208;-77
2022/09/22 13:58:33;;;;;;;6.47;3.83;;;;;;;;;;5069644;28;20196;-78
2022/09/22 14:01:00;;;;;;;2.40;2.20;;;;;;;;;;5070126;28;20242;-78
2022/09/22 14:03:28;;;;;;;1.40;1.30;;;;;;;;;;5069540;28;20690;-78
2022/09/22 14:05:55;;;;;;;1.33;0.93;;;;;;;;;;5070300;28;20232;-78
2022/09/22 14:08:28;;;;;;;0.87;0.87;;;;;;;;;;5069534;28;20212;-78
2022/09/22 14:10:56;;;;;;;1.83;1.30;;;;;;;;;;5070415;28;20649;-80
2022/09/22 14:13:39;;;;;;;0.60;0.60;;;;;;;;;;5069601;28;20239;-78
2022/09/22 14:16:09;;;;;;;1.63;1.53;;;;;;;;;;5069606;28;20755;-78
2022/09/22 14:18:40;;;;;;;0.90;0.90;;;;;;;;;;5070005;28;20288;-78
2022/09/22 14:21:09;;;;;;;1.23;1.13;;;;;;;;;;5070351;28;20204;-78
2022/09/22 14:23:43;;;;;;;0.90;0.90;;;;;;;;;;5069475;28;20197;-78
2022/09/22 14:26:20;;;;;;;2.90;1.73;;;;;;;;;;5070007;28;20228;-78
2022/09/22 14:28:49;;;;;;;1.90;1.80;;;;;;;;;;5069979;28;20201;-77
2022/09/22 14:31:22;;;;;;;1.77;1.67;;;;;;;;;;5070077;28;20209;-78
2022/09/22 14:33:49;;;;;;;2.33;2.13;;;;;;;;;;5070308;28;20225;-78
2022/09/22 14:36:20;;;;;;;1.90;1.80;;;;;;;;;;5069397;28;20212;-78
2022/09/22 14:38:49;;;;;;;2.00;1.67;;;;;;;;;;5069969;28;20249;-77
2022/09/22 14:41:21;;;;;;;1.60;1.50;;;;;;;;;;5069800;28;20265;-78
2022/09/22 14:43:49;;;;;;;1.40;1.30;;;;;;;;;;5069847;28;20204;-78
2022/09/22 14:46:32;;;;;;;4.00;2.37;;;;;;;;;;5069716;28;20227;-78
2022/09/22 14:49:03;;;;;;;2.30;1.53;;;;;;;;;;5069934;28;20591;-78
2022/09/22 14:51:33;;;;;;;1.53;1.43;;;;;;;;;;5069809;28;20207;-78
2022/09/22 14:54:04;;;;;;;1.40;1.30;;;;;;;;;;5071659;28;20281;-78
2022/09/22 14:56:35;;;;;;;0.97;0.97;;;;;;;;;;5073660;28;20565;-78
2022/09/22 15:02:30;;;;;;;1.80;1.70;;;;;;;;;;5073176;28;20302;-78
2022/09/22 15:04:50;;;;;;;0.80;0.80;;;;;;;;;;5071103;28;20263;-79
2022/09/22 15:07:24;;;;;;;1.87;1.30;;;;;;;;;;5072280;28;20217;-80
2022/09/22 15:09:54;;;;;;;0.87;0.87;;;;;;;;;;5073301;28;20197;-82
2022/09/22 15:12:45;;;;;;;0.80;0.80;;;;;;;;;;5073569;28;20221;-83
2022/09/22 15:15:20;;;;;;;0.60;0.60;;;;;;;;;;5062531;28;20258;-81
2022/09/22 15:20:37;;;;;;;0.73;0.73;;;;;;;;;;5073048;28;20239;-81
2022/09/22 15:23:05;;;;;;;0.80;0.80;;;;;;;;;;5072734;28;20209;-81
2022/09/22 15:25:33;;;;;;;1.00;0.77;;;;;;;;;;5072901;28;20202;-81
2022/09/22 15:28:00;;;;;;;0.60;0.60;;;;;;;;;;5072813;28;20232;-81
2022/09/22 15:30:31;;;;;;;0.50;0.50;;;;;;;;;;5072440;28;20247;-80